Time;durP1;ratioP1;P1;durP2;ratioP2;P2;SDS_P1;SDS_P2;PMS_P1;PMS_P2;Temp;Humidity;BMP_temperature;BMP_pressure;BME280_temperature;BME280_humidity;BME280_pressure;Samples;Min_cycle;Max_cycle;Signal;HPM_P1;HPM_P2
2021/08/06 00:01:50;;;;;;;15.63;10.90;;;;;;;;;;5011222;28;20033;-47
2021/08/06 00:04:16;;;;;;;14.25;9.57;;;;;;;;;;5011367;28;20025;-47
2021/08/06 00:06:42;;;;;;;8.65;5.68;;;;;;;;;;5011152;28;21022;-47
2021/08/06 00:09:09;;;;;;;15.07;9.98;;;;;;;;;;5011607;28;20028;-47
2021/08/06 00:11:35;;;;;;;28.10;15.38;;;;;;;;;;5011433;28;20033;-49
2021/08/06 00:14:02;;;;;;;15.63;10.43;;;;;;;;;;5011860;28;20457;-46
2021/08/06 00:16:28;;;;;;;17.27;10.85;;;;;;;;;;5011560;28;20032;-47
2021/08/06 00:18:54;;;;;;;10.65;7.65;;;;;;;;;;5011012;28;20097;-50
2021/08/06 00:21:20;;;;;;;6.38;3.53;;;;;;;;;;5011565;28;20045;-47
2021/08/06 00:23:47;;;;;;;10.20;6.10;;;;;;;;;;5010811;28;20033;-47
2021/08/06 00:26:15;;;;;;;12.35;7.68;;;;;;;;;;5011304;28;20830;-55
2021/08/06 00:28:44;;;;;;;25.23;17.83;;;;;;;;;;5010807;28;20069;-48
2021/08/06 00:31:10;;;;;;;14.70;10.20;;;;;;;;;;5011329;28;20037;-47
2021/08/06 00:33:36;;;;;;;26.20;16.48;;;;;;;;;;5011148;28;20319;-48
2021/08/06 00:36:02;;;;;;;10.63;7.00;;;;;;;;;;5010986;28;20033;-53
2021/08/06 00:38:28;;;;;;;13.63;6.60;;;;;;;;;;5010716;28;20522;-52
2021/08/06 00:40:54;;;;;;;13.93;8.40;;;;;;;;;;5010888;28;20047;-47
2021/08/06 00:43:23;;;;;;;30.25;18.95;;;;;;;;;;5010964;28;20032;-53
2021/08/06 00:45:49;;;;;;;20.17;13.50;;;;;;;;;;5010897;28;20029;-52
2021/08/06 00:48:16;;;;;;;19.00;10.95;;;;;;;;;;5010798;28;20068;-48
2021/08/06 00:50:42;;;;;;;16.75;9.85;;;;;;;;;;5006832;28;20021;-47
2021/08/06 00:53:08;;;;;;;15.93;10.27;;;;;;;;;;5010644;28;20059;-45
2021/08/06 00:55:34;;;;;;;9.45;5.88;;;;;;;;;;5010234;28;20033;-47
2021/08/06 00:58:00;;;;;;;14.25;9.02;;;;;;;;;;5008948;28;20175;-52
2021/08/06 01:00:26;;;;;;;8.27;4.68;;;;;;;;;;5010165;28;20517;-46
2021/08/06 01:03:04;;;;;;;6.47;3.85;;;;;;;;;;5010133;28;20026;-47
2021/08/06 01:05:32;;;;;;;10.88;5.78;;;;;;;;;;5010351;28;20028;-50
2021/08/06 01:07:58;;;;;;;12.52;7.63;;;;;;;;;;5020249;28;20068;-48
2021/08/06 01:10:27;;;;;;;10.02;6.88;;;;;;;;;;5035021;28;20021;-48
2021/08/06 01:12:55;;;;;;;19.23;12.23;;;;;;;;;;5034896;28;20058;-49
2021/08/06 01:15:22;;;;;;;6.05;2.95;;;;;;;;;;5034923;28;20025;-45
2021/08/06 01:17:50;;;;;;;6.90;4.63;;;;;;;;;;5034802;28;20035;-47
2021/08/06 01:20:21;;;;;;;7.22;5.57;;;;;;;;;;5034903;28;20029;-48
2021/08/06 01:22:52;;;;;;;7.00;3.03;;;;;;;;;;5034829;28;20068;-47
2021/08/06 01:25:33;;;;;;;7.38;4.30;;;;;;;;;;5034798;28;20018;-48
2021/08/06 01:28:00;;;;;;;8.70;5.90;;;;;;;;;;5034517;28;20022;-47
2021/08/06 01:30:28;;;;;;;15.07;10.68;;;;;;;;;;5034637;28;20091;-47
2021/08/06 01:32:57;;;;;;;11.32;7.45;;;;;;;;;;5034775;28;20068;-49
2021/08/06 01:35:24;;;;;;;7.75;6.30;;;;;;;;;;5034850;28;20028;-54
2021/08/06 01:37:50;;;;;;;35.00;25.25;;;;;;;;;;5034579;28;20052;-55
2021/08/06 01:40:18;;;;;;;12.27;8.75;;;;;;;;;;5034521;28;20032;-54
2021/08/06 01:42:52;;;;;;;16.30;10.65;;;;;;;;;;5034496;28;20040;-55
2021/08/06 01:45:20;;;;;;;15.05;10.27;;;;;;;;;;5034388;28;20017;-55
2021/08/06 01:47:48;;;;;;;9.13;6.07;;;;;;;;;;5034603;28;20030;-52
2021/08/06 01:50:17;;;;;;;11.07;6.72;;;;;;;;;;5034403;28;20021;-54
2021/08/06 01:52:50;;;;;;;6.75;2.97;;;;;;;;;;5034217;28;20037;-52
2021/08/06 01:55:19;;;;;;;5.00;2.63;;;;;;;;;;5034228;28;20025;-52
2021/08/06 01:57:46;;;;;;;2.50;1.52;;;;;;;;;;5034163;28;20048;-54
2021/08/06 02:00:12;;;;;;;4.22;1.70;;;;;;;;;;5033870;28;20516;-53
2021/08/06 02:02:39;;;;;;;3.80;1.17;;;;;;;;;;5034292;28;20105;-54
2021/08/06 02:05:05;;;;;;;5.88;1.52;;;;;;;;;;5034261;28;20124;-54
2021/08/06 02:07:31;;;;;;;1.75;1.27;;;;;;;;;;5034197;28;20029;-53
2021/08/06 02:09:57;;;;;;;0.85;0.80;;;;;;;;;;5033572;28;20026;-53
2021/08/06 02:12:23;;;;;;;4.32;1.42;;;;;;;;;;5034082;28;20060;-53
2021/08/06 02:14:50;;;;;;;1.73;1.45;;;;;;;;;;5034134;28;20048;-55
2021/08/06 02:17:16;;;;;;;3.78;1.13;;;;;;;;;;5033887;28;20094;-55
2021/08/06 02:19:42;;;;;;;9.13;1.45;;;;;;;;;;5033903;28;20028;-54
2021/08/06 02:22:09;;;;;;;3.58;0.95;;;;;;;;;;5034059;28;20037;-54
2021/08/06 02:24:36;;;;;;;5.25;1.48;;;;;;;;;;5033989;28;20024;-55
2021/08/06 02:27:03;;;;;;;1.60;0.98;;;;;;;;;;5033701;28;20025;-55
2021/08/06 02:29:29;;;;;;;1.70;1.10;;;;;;;;;;5033552;28;20481;-54
2021/08/06 02:31:57;;;;;;;1.10;0.95;;;;;;;;;;5033950;28;20025;-53
2021/08/06 02:34:23;;;;;;;2.75;1.17;;;;;;;;;;5033779;28;20032;-53
2021/08/06 02:36:49;;;;;;;1.13;1.02;;;;;;;;;;5033683;28;20445;-53
2021/08/06 02:39:17;;;;;;;1.30;0.80;;;;;;;;;;5033529;28;20025;-52
2021/08/06 02:41:44;;;;;;;3.67;1.00;;;;;;;;;;5032230;28;20034;-52
2021/08/06 02:44:10;;;;;;;2.20;0.90;;;;;;;;;;5033308;28;20029;-54
2021/08/06 02:46:36;;;;;;;1.58;0.98;;;;;;;;;;5033669;28;20057;-53
2021/08/06 02:49:03;;;;;;;5.38;0.95;;;;;;;;;;5033381;28;20112;-53
2021/08/06 02:51:29;;;;;;;4.88;0.82;;;;;;;;;;5033539;28;20021;-54
2021/08/06 02:53:56;;;;;;;5.32;1.10;;;;;;;;;;5033525;28;20026;-52
2021/08/06 02:56:22;;;;;;;4.55;1.30;;;;;;;;;;5033310;28;20021;-53
2021/08/06 02:58:48;;;;;;;3.55;1.17;;;;;;;;;;5033196;28;20022;-54
2021/08/06 03:01:14;;;;;;;3.70;1.30;;;;;;;;;;5032966;28;20431;-54
2021/08/06 03:03:43;;;;;;;1.35;0.85;;;;;;;;;;5033416;28;20033;-54
2021/08/06 03:06:09;;;;;;;1.27;0.75;;;;;;;;;;5033364;28;20033;-54
2021/08/06 03:08:35;;;;;;;3.65;1.10;;;;;;;;;;5033490;28;20022;-53
2021/08/06 03:11:01;;;;;;;4.20;1.02;;;;;;;;;;5033389;28;20099;-54
2021/08/06 03:13:27;;;;;;;1.65;0.70;;;;;;;;;;5033145;28;20470;-53
2021/08/06 03:15:53;;;;;;;3.17;0.90;;;;;;;;;;5033174;28;20029;-55
2021/08/06 03:18:19;;;;;;;3.40;1.05;;;;;;;;;;5033255;28;20029;-53
2021/08/06 03:20:46;;;;;;;2.10;0.77;;;;;;;;;;5033256;28;20038;-54
2021/08/06 03:23:12;;;;;;;1.98;1.10;;;;;;;;;;5037041;28;20100;-54
2021/08/06 03:25:38;;;;;;;1.50;1.00;;;;;;;;;;5037112;28;20045;-52
2021/08/06 03:28:04;;;;;;;2.45;0.75;;;;;;;;;;5036905;28;20032;-54
2021/08/06 03:30:30;;;;;;;2.55;1.10;;;;;;;;;;5036972;28;20057;-55
2021/08/06 03:32:56;;;;;;;1.77;0.95;;;;;;;;;;5037251;28;20022;-53
2021/08/06 03:35:23;;;;;;;4.68;0.90;;;;;;;;;;5037112;28;20111;-54
2021/08/06 03:37:49;;;;;;;3.13;1.20;;;;;;;;;;5037002;28;20017;-54
2021/08/06 03:40:15;;;;;;;3.05;0.98;;;;;;;;;;5035676;28;20025;-54
2021/08/06 03:42:44;;;;;;;4.57;1.05;;;;;;;;;;5036671;28;20037;-54
2021/08/06 03:45:11;;;;;;;4.15;1.10;;;;;;;;;;5036807;28;20151;-54
2021/08/06 03:47:37;;;;;;;1.42;1.00;;;;;;;;;;5036848;28;20029;-53
2021/08/06 03:50:04;;;;;;;2.85;0.77;;;;;;;;;;5036586;28;20024;-53
2021/08/06 03:52:30;;;;;;;2.00;0.77;;;;;;;;;;5036843;28;20039;-53
2021/08/06 03:54:56;;;;;;;2.90;0.90;;;;;;;;;;5036493;28;20013;-52
2021/08/06 03:57:23;;;;;;;1.77;0.95;;;;;;;;;;5036492;28;20029;-52
2021/08/06 03:59:49;;;;;;;3.38;1.15;;;;;;;;;;5036095;28;20041;-53
2021/08/06 04:02:15;;;;;;;4.18;1.20;;;;;;;;;;5036477;28;20041;-53
2021/08/06 04:04:41;;;;;;;1.98;0.90;;;;;;;;;;5036508;28;20021;-53
2021/08/06 04:07:07;;;;;;;1.27;1.00;;;;;;;;;;5036360;28;20068;-46
2021/08/06 04:09:33;;;;;;;1.27;0.90;;;;;;;;;;5036503;28;20405;-47
2021/08/06 04:12:01;;;;;;;2.25;1.20;;;;;;;;;;5036444;28;20026;-46
2021/08/06 04:14:28;;;;;;;1.50;0.90;;;;;;;;;;5036120;28;20018;-47
2021/08/06 04:16:56;;;;;;;2.80;0.80;;;;;;;;;;5036205;28;20028;-47
2021/08/06 04:19:22;;;;;;;3.35;1.05;;;;;;;;;;5036268;28;20591;-47
2021/08/06 04:21:48;;;;;;;2.78;1.10;;;;;;;;;;5036213;28;20091;-49
2021/08/06 04:24:14;;;;;;;1.88;1.05;;;;;;;;;;5036325;28;20017;-47
2021/08/06 04:26:43;;;;;;;4.00;1.58;;;;;;;;;;5035997;28;20030;-46
2021/08/06 04:29:09;;;;;;;1.58;1.00;;;;;;;;;;5035637;28;20030;-46
2021/08/06 04:31:35;;;;;;;3.90;2.60;;;;;;;;;;5035863;28;20109;-46
2021/08/06 04:34:03;;;;;;;15.02;9.05;;;;;;;;;;5035281;28;20022;-46
2021/08/06 04:36:29;;;;;;;17.20;10.93;;;;;;;;;;5035900;28;20025;-46
2021/08/06 04:38:55;;;;;;;7.90;4.60;;;;;;;;;;5035740;28;20068;-46
2021/08/06 04:41:21;;;;;;;6.50;4.68;;;;;;;;;;5035563;28;20037;-46
2021/08/06 04:43:48;;;;;;;3.30;2.35;;;;;;;;;;5035452;28;20021;-45
2021/08/06 04:46:14;;;;;;;3.63;1.60;;;;;;;;;;5035563;28;20515;-48
2021/08/06 04:48:40;;;;;;;3.35;1.48;;;;;;;;;;5035685;28;20032;-49
2021/08/06 04:51:06;;;;;;;2.38;1.42;;;;;;;;;;5035573;28;20497;-50
2021/08/06 04:53:34;;;;;;;4.70;2.60;;;;;;;;;;5035781;28;20100;-46
2021/08/06 04:56:00;;;;;;;8.07;5.18;;;;;;;;;;5035387;28;20033;-50
2021/08/06 04:58:26;;;;;;;10.38;3.38;;;;;;;;;;5035224;28;20148;-51
2021/08/06 05:00:52;;;;;;;10.70;4.72;;;;;;;;;;5035079;28;20057;-48
2021/08/06 05:03:18;;;;;;;6.65;2.97;;;;;;;;;;5035361;28;20099;-47
2021/08/06 05:05:44;;;;;;;22.85;10.10;;;;;;;;;;5035371;28;20028;-48
2021/08/06 05:08:10;;;;;;;7.88;5.28;;;;;;;;;;5035167;28;20565;-53
2021/08/06 05:10:37;;;;;;;5.63;3.75;;;;;;;;;;5035015;28;20112;-52
2021/08/06 05:13:03;;;;;;;3.40;2.38;;;;;;;;;;5034934;28;20017;-49
2021/08/06 05:15:29;;;;;;;2.45;1.98;;;;;;;;;;5035172;28;20025;-48
2021/08/06 05:17:57;;;;;;;5.82;3.58;;;;;;;;;;5035169;28;20025;-53
2021/08/06 05:20:23;;;;;;;4.20;2.80;;;;;;;;;;5034883;28;20028;-47
2021/08/06 05:22:49;;;;;;;21.05;16.38;;;;;;;;;;5035087;28;20105;-45
2021/08/06 05:25:15;;;;;;;6.18;3.75;;;;;;;;;;5034896;28;20049;-46
2021/08/06 05:27:44;;;;;;;9.90;6.78;;;;;;;;;;5034622;28;20035;-47
2021/08/06 05:30:13;;;;;;;5.80;4.30;;;;;;;;;;5034696;28;20052;-46
2021/08/06 05:32:39;;;;;;;7.80;3.42;;;;;;;;;;5034572;28;20025;-50
2021/08/06 05:35:05;;;;;;;20.98;10.80;;;;;;;;;;5034586;28;20036;-46
2021/08/06 05:37:31;;;;;;;6.25;4.55;;;;;;;;;;5034500;28;20113;-50
2021/08/06 05:39:57;;;;;;;9.25;6.35;;;;;;;;;;5034426;28;20037;-47
2021/08/06 05:42:24;;;;;;;13.25;10.75;;;;;;;;;;5034360;28;20029;-50
2021/08/06 05:44:50;;;;;;;13.38;10.85;;;;;;;;;;5033379;28;20026;-49
2021/08/06 05:47:16;;;;;;;5.45;3.95;;;;;;;;;;5034413;28;20120;-51
2021/08/06 05:49:42;;;;;;;5.93;5.03;;;;;;;;;;5034453;28;20504;-49
2021/08/06 05:52:10;;;;;;;8.35;4.78;;;;;;;;;;5034358;28;20025;-46
2021/08/06 05:54:36;;;;;;;6.88;4.03;;;;;;;;;;5034456;28;20028;-47
2021/08/06 05:57:02;;;;;;;5.05;3.00;;;;;;;;;;5034357;28;20025;-49
2021/08/06 05:59:28;;;;;;;6.70;2.65;;;;;;;;;;5033879;28;20046;-51
2021/08/06 06:01:54;;;;;;;6.35;3.90;;;;;;;;;;5034340;28;20037;-50
2021/08/06 06:04:25;;;;;;;3.28;2.80;;;;;;;;;;5034150;28;20028;-50
2021/08/06 06:06:51;;;;;;;4.87;2.30;;;;;;;;;;5034085;28;20555;-51
2021/08/06 06:09:17;;;;;;;5.15;2.42;;;;;;;;;;5034077;28;20104;-49
2021/08/06 06:11:43;;;;;;;3.45;2.20;;;;;;;;;;5034101;28;20032;-57
2021/08/06 06:14:10;;;;;;;3.13;2.10;;;;;;;;;;5033837;28;20397;-56
2021/08/06 06:16:36;;;;;;;4.68;2.20;;;;;;;;;;5033783;28;20075;-50
2021/08/06 06:19:02;;;;;;;3.45;2.00;;;;;;;;;;5033877;28;20032;-48
2021/08/06 06:21:29;;;;;;;3.45;2.38;;;;;;;;;;5033791;28;20034;-55
2021/08/06 06:23:55;;;;;;;3.83;1.88;;;;;;;;;;5034123;28;20050;-47
2021/08/06 06:26:21;;;;;;;3.70;1.77;;;;;;;;;;5033705;28;20064;-50
2021/08/06 06:28:47;;;;;;;2.80;2.00;;;;;;;;;;5033513;28;20075;-50
2021/08/06 06:31:13;;;;;;;5.82;2.53;;;;;;;;;;5033508;28;20029;-48
2021/08/06 06:33:39;;;;;;;6.35;2.53;;;;;;;;;;5032313;28;20033;-48
2021/08/06 06:36:07;;;;;;;2.65;2.00;;;;;;;;;;5033746;28;20025;-49
2021/08/06 06:38:34;;;;;;;4.70;1.92;;;;;;;;;;5033615;28;20128;-49
2021/08/06 06:41:00;;;;;;;3.70;1.70;;;;;;;;;;5033441;28;20052;-48
2021/08/06 06:43:26;;;;;;;3.47;1.92;;;;;;;;;;5033554;28;20029;-48
2021/08/06 06:45:52;;;;;;;2.50;1.60;;;;;;;;;;5033505;28;20022;-48
2021/08/06 06:48:24;;;;;;;2.17;1.60;;;;;;;;;;5033580;28;20021;-51
2021/08/06 06:50:50;;;;;;;3.17;1.70;;;;;;;;;;5033688;28;20425;-50
2021/08/06 06:53:16;;;;;;;3.88;1.98;;;;;;;;;;5033653;28;20021;-50
2021/08/06 06:55:43;;;;;;;5.10;1.63;;;;;;;;;;5033216;28;20425;-49
2021/08/06 06:58:10;;;;;;;1.67;1.55;;;;;;;;;;5033270;28;20030;-53
2021/08/06 07:00:36;;;;;;;1.70;1.60;;;;;;;;;;5032925;28;20085;-48
2021/08/06 07:03:02;;;;;;;4.95;1.80;;;;;;;;;;5033387;28;20056;-48
2021/08/06 07:05:28;;;;;;;1.95;1.45;;;;;;;;;;5033408;28;20053;-49
2021/08/06 07:07:54;;;;;;;10.85;1.67;;;;;;;;;;5033492;28;20167;-48
2021/08/06 07:10:21;;;;;;;1.83;1.60;;;;;;;;;;5033230;28;20033;-48
2021/08/06 07:12:48;;;;;;;4.93;1.90;;;;;;;;;;5033108;28;20386;-48
2021/08/06 07:15:14;;;;;;;4.72;1.20;;;;;;;;;;5033048;28;20488;-48
2021/08/06 07:17:41;;;;;;;2.45;1.15;;;;;;;;;;5033369;28;20022;-50
2021/08/06 07:20:08;;;;;;;1.23;1.10;;;;;;;;;;5033383;28;20377;-52
2021/08/06 07:22:35;;;;;;;2.88;1.25;;;;;;;;;;5032508;28;20036;-49
2021/08/06 07:25:01;;;;;;;3.03;1.00;;;;;;;;;;5032724;28;20021;-51
2021/08/06 07:27:27;;;;;;;16.00;10.85;;;;;;;;;;5032410;28;20041;-50
2021/08/06 07:29:53;;;;;;;10.30;5.38;;;;;;;;;;5032387;28;20112;-51
2021/08/06 07:32:19;;;;;;;2.05;1.10;;;;;;;;;;5032721;28;20049;-48
2021/08/06 07:34:45;;;;;;;11.35;5.28;;;;;;;;;;5032394;28;20068;-57
2021/08/06 07:37:12;;;;;;;9.57;5.07;;;;;;;;;;5032553;28;20017;-55
2021/08/06 07:39:38;;;;;;;39.83;22.65;;;;;;;;;;5032423;28;20048;-55
2021/08/06 07:42:04;;;;;;;11.50;4.75;;;;;;;;;;5032903;28;20037;-57
2021/08/06 07:44:30;;;;;;;2.00;1.50;;;;;;;;;;5032418;28;20105;-57
2021/08/06 07:46:57;;;;;;;2.00;1.27;;;;;;;;;;5032613;28;20025;-57
2021/08/06 07:49:23;;;;;;;3.65;1.02;;;;;;;;;;5032509;28;20025;-58
2021/08/06 07:51:49;;;;;;;0.80;0.80;;;;;;;;;;5032536;28;20033;-57
2021/08/06 07:54:15;;;;;;;5.28;3.33;;;;;;;;;;5032476;28;20148;-56
2021/08/06 07:56:41;;;;;;;1.73;1.50;;;;;;;;;;5032044;28;20034;-57
2021/08/06 07:59:07;;;;;;;6.55;2.78;;;;;;;;;;5031793;28;20018;-58
2021/08/06 08:01:33;;;;;;;4.15;1.40;;;;;;;;;;5032093;28;20083;-57
2021/08/06 08:03:59;;;;;;;5.43;2.83;;;;;;;;;;5030891;28;20384;-58
2021/08/06 08:06:25;;;;;;;4.10;1.85;;;;;;;;;;5032450;28;20028;-58
2021/08/06 08:08:52;;;;;;;3.38;2.05;;;;;;;;;;5035603;28;20026;-58
2021/08/06 08:11:18;;;;;;;4.20;2.70;;;;;;;;;;5036534;28;20026;-58
2021/08/06 08:13:44;;;;;;;2.67;1.73;;;;;;;;;;5036231;28;20414;-58
2021/08/06 08:16:10;;;;;;;2.85;0.88;;;;;;;;;;5036221;28;20014;-58
2021/08/06 08:18:36;;;;;;;2.70;1.80;;;;;;;;;;5036534;28;20025;-55
2021/08/06 08:21:02;;;;;;;5.07;3.85;;;;;;;;;;5035698;28;20481;-58
2021/08/06 08:23:29;;;;;;;2.67;0.95;;;;;;;;;;5035599;28;20029;-56
2021/08/06 08:25:55;;;;;;;4.75;1.52;;;;;;;;;;5035430;28;20017;-56
2021/08/06 08:28:23;;;;;;;41.60;32.92;;;;;;;;;;5035772;28;20018;-59
2021/08/06 08:30:49;;;;;;;21.38;15.52;;;;;;;;;;5035199;28;20377;-60
2021/08/06 08:33:16;;;;;;;16.55;13.10;;;;;;;;;;5035567;28;20025;-56
2021/08/06 08:35:45;;;;;;;4.18;2.75;;;;;;;;;;5035569;28;20389;-55
2021/08/06 08:38:12;;;;;;;33.78;20.08;;;;;;;;;;5035444;28;20049;-62
2021/08/06 08:40:38;;;;;;;20.45;13.88;;;;;;;;;;5035240;28;20018;-57
2021/08/06 08:43:05;;;;;;;6.03;3.38;;;;;;;;;;5035078;28;20028;-55
2021/08/06 08:45:31;;;;;;;3.85;3.20;;;;;;;;;;5034993;28;20026;-55
2021/08/06 08:47:58;;;;;;;3.97;1.83;;;;;;;;;;5034838;28;20067;-57
2021/08/06 08:50:25;;;;;;;2.00;1.52;;;;;;;;;;5035134;28;20032;-53
2021/08/06 08:52:51;;;;;;;9.02;2.35;;;;;;;;;;5034909;28;20479;-58
2021/08/06 08:55:17;;;;;;;2.65;1.13;;;;;;;;;;5033686;28;20383;-59
2021/08/06 08:57:46;;;;;;;3.75;1.25;;;;;;;;;;5035348;28;20079;-57
2021/08/06 09:00:15;;;;;;;1.02;0.80;;;;;;;;;;5034531;28;20481;-57
2021/08/06 09:02:41;;;;;;;1.05;0.60;;;;;;;;;;5015009;28;20104;-47
2021/08/06 09:05:19;;;;;;;5.22;1.30;;;;;;;;;;5010133;28;20079;-58
2021/08/06 09:07:45;;;;;;;2.10;0.90;;;;;;;;;;5010376;28;20075;-56
2021/08/06 09:10:13;;;;;;;2.55;1.42;;;;;;;;;;5010126;28;20129;-53
2021/08/06 09:12:50;;;;;;;4.40;2.63;;;;;;;;;;5009838;28;20628;-52
2021/08/06 09:15:16;;;;;;;12.02;7.50;;;;;;;;;;5009278;28;20160;-47
2021/08/06 09:17:43;;;;;;;5.40;3.28;;;;;;;;;;5008922;28;20087;-54
2021/08/06 09:20:13;;;;;;;2.58;1.50;;;;;;;;;;5009061;28;20025;-54
2021/08/06 09:22:40;;;;;;;13.05;11.35;;;;;;;;;;5009393;28;20144;-56
2021/08/06 09:25:13;;;;;;;4.07;2.88;;;;;;;;;;5008495;28;20025;-47
2021/08/06 09:27:41;;;;;;;7.35;5.10;;;;;;;;;;5009365;28;20479;-49
2021/08/06 09:30:11;;;;;;;5.72;3.95;;;;;;;;;;5008278;28;20041;-49
2021/08/06 09:32:48;;;;;;;5.57;3.10;;;;;;;;;;5008375;28;20593;-55
2021/08/06 09:35:15;;;;;;;1.50;1.27;;;;;;;;;;5010164;28;20516;-57
2021/08/06 09:37:41;;;;;;;2.63;1.77;;;;;;;;;;5009788;28;20033;-52
2021/08/06 09:40:12;;;;;;;4.45;1.20;;;;;;;;;;5009888;28;20463;-57
2021/08/06 09:42:46;;;;;;;4.15;1.00;;;;;;;;;;5009516;28;20363;-55
2021/08/06 09:45:14;;;;;;;81.18;52.40;;;;;;;;;;5021989;28;20041;-61
2021/08/06 09:47:41;;;;;;;27.75;15.40;;;;;;;;;;5034391;28;20029;-58
2021/08/06 09:50:08;;;;;;;229.38;189.88;;;;;;;;;;5034295;28;20366;-58
2021/08/06 09:52:38;;;;;;;89.55;79.40;;;;;;;;;;5034281;28;20049;-59
2021/08/06 09:55:05;;;;;;;20.35;17.05;;;;;;;;;;5033988;28;20021;-64
2021/08/06 09:57:31;;;;;;;4.18;2.38;;;;;;;;;;5033450;28;20030;-50
2021/08/06 09:59:58;;;;;;;87.25;62.70;;;;;;;;;;5014272;28;20100;-68
2021/08/06 10:02:30;;;;;;;120.18;86.72;;;;;;;;;;5014368;28;20033;-57
2021/08/06 10:04:56;;;;;;;55.63;41.20;;;;;;;;;;5014471;28;20018;-64
2021/08/06 10:07:23;;;;;;;9.45;7.68;;;;;;;;;;5014234;28;20028;-65
2021/08/06 10:09:49;;;;;;;1.60;1.50;;;;;;;;;;5014201;28;20068;-67
2021/08/06 10:12:16;;;;;;;7.70;5.05;;;;;;;;;;5014246;28;20030;-64
2021/08/06 10:14:42;;;;;;;39.85;32.08;;;;;;;;;;5014022;28;20049;-53
2021/08/06 10:17:09;;;;;;;29.17;21.15;;;;;;;;;;5014140;28;20053;-64
2021/08/06 10:19:35;;;;;;;46.50;37.60;;;;;;;;;;5014021;28;20025;-64
2021/08/06 10:22:03;;;;;;;57.35;42.53;;;;;;;;;;5013593;28;20048;-65
2021/08/06 10:24:29;;;;;;;45.63;34.80;;;;;;;;;;5014137;28;20463;-64
2021/08/06 10:26:56;;;;;;;16.23;12.95;;;;;;;;;;5013963;28;20034;-67
2021/08/06 10:29:22;;;;;;;4.38;3.65;;;;;;;;;;5029303;28;20489;-62
2021/08/06 10:32:07;;;;;;;1.30;1.20;;;;;;;;;;5033215;28;20029;-62
2021/08/06 10:34:33;;;;;;;3.45;1.35;;;;;;;;;;5033446;28;20018;-65
2021/08/06 10:36:59;;;;;;;1.20;1.00;;;;;;;;;;5033888;28;20434;-62
2021/08/06 10:39:33;;;;;;;21.65;18.42;;;;;;;;;;5033609;28;20036;-61
2021/08/06 10:42:00;;;;;;;8.35;5.63;;;;;;;;;;5033209;28;20067;-66
2021/08/06 10:44:26;;;;;;;1.80;0.95;;;;;;;;;;5032107;28;20018;-61
2021/08/06 10:47:05;;;;;;;10.05;1.67;;;;;;;;;;5032549;28;20473;-62
2021/08/06 10:49:32;;;;;;;35.72;16.77;;;;;;;;;;5033460;28;20049;-62
2021/08/06 10:52:33;;;;;;;36.20;21.38;;;;;;;;;;5033219;28;20028;-59
2021/08/06 10:55:15;;;;;;;39.72;26.63;;;;;;;;;;4991787;28;20109;-65
2021/08/06 10:57:41;;;;;;;25.10;17.08;;;;;;;;;;4991617;28;20059;-65
2021/08/06 11:00:08;;;;;;;98.35;79.93;;;;;;;;;;4991315;28;20063;-63
2021/08/06 11:02:34;;;;;;;11.10;8.73;;;;;;;;;;4991626;28;20050;-66
2021/08/06 11:05:02;;;;;;;18.65;15.80;;;;;;;;;;4991722;28;20109;-61
2021/08/06 11:07:31;;;;;;;28.17;21.13;;;;;;;;;;4991761;28;20046;-63
2021/08/06 11:09:58;;;;;;;7.05;6.15;;;;;;;;;;4991583;28;20526;-66
2021/08/06 11:12:34;;;;;;;26.73;19.65;;;;;;;;;;4991581;28;20051;-63
2021/08/06 11:15:03;;;;;;;20.88;11.48;;;;;;;;;;4991645;28;20050;-62
2021/08/06 11:17:40;;;;;;;6.45;4.88;;;;;;;;;;4991611;28;20030;-59
2021/08/06 11:20:11;;;;;;;36.33;26.92;;;;;;;;;;4991647;28;20030;-60
2021/08/06 11:22:38;;;;;;;42.65;26.08;;;;;;;;;;4991563;28;20464;-57
2021/08/06 11:25:24;;;;;;;5.57;4.10;;;;;;;;;;4991553;28;20037;-58
2021/08/06 11:27:50;;;;;;;11.40;7.43;;;;;;;;;;4993229;28;20062;-57
2021/08/06 11:30:19;;;;;;;18.75;14.02;;;;;;;;;;5032680;28;20049;-65
2021/08/06 11:32:47;;;;;;;58.28;46.88;;;;;;;;;;5032777;28;20030;-64
2021/08/06 11:35:16;;;;;;;18.92;14.88;;;;;;;;;;5031865;28;20033;-62
2021/08/06 11:37:48;;;;;;;47.67;39.47;;;;;;;;;;5032767;28;20116;-59
2021/08/06 11:40:14;;;;;;;10.30;8.80;;;;;;;;;;5032903;28;20025;-63
2021/08/06 11:42:41;;;;;;;8.15;6.30;;;;;;;;;;5033956;28;20501;-63
2021/08/06 11:45:08;;;;;;;4.18;2.03;;;;;;;;;;5036659;28;20032;-61
2021/08/06 11:47:37;;;;;;;12.10;10.00;;;;;;;;;;5036593;28;20025;-58
2021/08/06 11:50:04;;;;;;;10.73;7.55;;;;;;;;;;5036609;28;20064;-59
2021/08/06 11:52:37;;;;;;;1.50;1.40;;;;;;;;;;5036606;28;20491;-56
2021/08/06 11:55:04;;;;;;;48.85;31.13;;;;;;;;;;5036561;28;20369;-57
2021/08/06 11:57:46;;;;;;;33.95;19.10;;;;;;;;;;5036414;28;20029;-58
2021/08/06 12:00:16;;;;;;;65.70;48.20;;;;;;;;;;5036077;28;20057;-60
2021/08/06 12:02:43;;;;;;;7.82;5.35;;;;;;;;;;5036230;28;20045;-61
2021/08/06 12:05:24;;;;;;;103.50;73.57;;;;;;;;;;5036238;28;20029;-63
2021/08/06 12:07:50;;;;;;;26.55;19.52;;;;;;;;;;5036242;28;20472;-45
2021/08/06 12:10:18;;;;;;;107.30;83.63;;;;;;;;;;5036191;28;20028;-60
2021/08/06 12:12:44;;;;;;;22.10;17.02;;;;;;;;;;5036201;28;20075;-45
2021/08/06 12:15:22;;;;;;;11.55;9.32;;;;;;;;;;5036073;28;20017;-46
2021/08/06 12:17:51;;;;;;;29.70;20.83;;;;;;;;;;5035931;28;20060;-54
2021/08/06 12:20:40;;;;;;;32.15;25.95;;;;;;;;;;5036361;28;20171;-50
2021/08/06 12:23:08;;;;;;;67.95;46.90;;;;;;;;;;4994350;28;20507;-44
2021/08/06 12:25:36;;;;;;;6.65;5.57;;;;;;;;;;4994412;28;20063;-45
2021/08/06 12:28:03;;;;;;;12.73;8.95;;;;;;;;;;4978065;28;20514;-46
2021/08/06 12:30:30;;;;;;;18.73;15.43;;;;;;;;;;4994147;28;20058;-53
2021/08/06 12:32:57;;;;;;;74.18;48.15;;;;;;;;;;4994373;28;20037;-50
2021/08/06 12:35:24;;;;;;;23.25;16.20;;;;;;;;;;4994178;28;20109;-56
2021/08/06 12:37:53;;;;;;;40.58;30.38;;;;;;;;;;4993957;28;20034;-51
2021/08/06 12:40:19;;;;;;;22.17;17.65;;;;;;;;;;4994093;28;20038;-50
2021/08/06 12:42:50;;;;;;;15.98;10.57;;;;;;;;;;4993952;28;20086;-61
2021/08/06 12:45:21;;;;;;;4.97;2.35;;;;;;;;;;4994001;28;20101;-61
2021/08/06 12:47:47;;;;;;;17.42;5.32;;;;;;;;;;4994027;28;20038;-60
2021/08/06 12:50:14;;;;;;;6.47;2.00;;;;;;;;;;4993942;28;20447;-58
2021/08/06 12:52:42;;;;;;;2.35;1.27;;;;;;;;;;4993851;28;20069;-57
2021/08/06 12:55:09;;;;;;;3.55;1.63;;;;;;;;;;4993495;28;20026;-51
2021/08/06 12:57:39;;;;;;;1.65;1.10;;;;;;;;;;4993803;28;20038;-59
2021/08/06 13:00:13;;;;;;;2.80;0.90;;;;;;;;;;5012240;28;20053;-58
2021/08/06 13:02:40;;;;;;;2.28;1.10;;;;;;;;;;5035294;28;20029;-58
2021/08/06 13:05:07;;;;;;;6.20;1.50;;;;;;;;;;5034963;28;20484;-59
2021/08/06 13:07:33;;;;;;;5.97;1.10;;;;;;;;;;5035119;28;20048;-57
2021/08/06 13:10:00;;;;;;;2.75;1.20;;;;;;;;;;5035159;28;20028;-60
2021/08/06 13:12:27;;;;;;;1.90;1.35;;;;;;;;;;5035185;28;20029;-60
2021/08/06 13:14:53;;;;;;;1.40;1.10;;;;;;;;;;5034984;28;20037;-55
2021/08/06 13:17:20;;;;;;;1.00;0.90;;;;;;;;;;5034987;28;20021;-61
2021/08/06 13:19:47;;;;;;;0.80;0.80;;;;;;;;;;5034922;28;20029;-63
2021/08/06 13:22:14;;;;;;;3.90;1.45;;;;;;;;;;5034802;28;20458;-61
2021/08/06 13:24:45;;;;;;;5.60;1.73;;;;;;;;;;5034648;28;20021;-60
2021/08/06 13:27:11;;;;;;;2.13;1.00;;;;;;;;;;5034903;28;20508;-57
2021/08/06 13:29:37;;;;;;;8.82;4.93;;;;;;;;;;5034550;28;20088;-62
2021/08/06 13:32:05;;;;;;;12.25;5.65;;;;;;;;;;5034770;28;20025;-61
2021/08/06 13:34:31;;;;;;;3.85;3.03;;;;;;;;;;5034833;28;20508;-63
2021/08/06 13:36:57;;;;;;;67.75;54.60;;;;;;;;;;5034886;28;20033;-64
2021/08/06 13:39:24;;;;;;;25.33;18.88;;;;;;;;;;5034507;28;20033;-65
2021/08/06 13:41:51;;;;;;;9.88;8.25;;;;;;;;;;5034453;28;20485;-63
2021/08/06 13:44:17;;;;;;;22.67;17.63;;;;;;;;;;5034528;28;20033;-66
2021/08/06 13:46:43;;;;;;;27.13;21.08;;;;;;;;;;5034359;28;20026;-64
2021/08/06 13:49:09;;;;;;;5.18;2.63;;;;;;;;;;5034575;28;20022;-63
2021/08/06 13:51:35;;;;;;;43.00;34.80;;;;;;;;;;5034479;28;20036;-52
2021/08/06 13:54:03;;;;;;;10.35;8.57;;;;;;;;;;5033223;28;20040;-59
2021/08/06 13:56:30;;;;;;;13.30;8.30;;;;;;;;;;5034339;28;20044;-62
2021/08/06 13:58:56;;;;;;;16.45;11.07;;;;;;;;;;5034317;28;20044;-62
2021/08/06 14:01:22;;;;;;;24.65;18.05;;;;;;;;;;5034009;28;20505;-58
2021/08/06 14:03:48;;;;;;;4.88;4.03;;;;;;;;;;5034177;28;20034;-58
2021/08/06 14:06:14;;;;;;;6.38;4.20;;;;;;;;;;5033368;28;20481;-58
2021/08/06 14:08:41;;;;;;;6.60;5.18;;;;;;;;;;5033912;28;20029;-55
2021/08/06 14:11:07;;;;;;;9.07;6.90;;;;;;;;;;5034022;28;20096;-57
2021/08/06 14:13:36;;;;;;;7.85;5.50;;;;;;;;;;5034007;28;20033;-61
2021/08/06 14:16:05;;;;;;;23.77;17.73;;;;;;;;;;5034026;28;20044;-65
2021/08/06 14:18:33;;;;;;;9.30;8.30;;;;;;;;;;5033898;28;20100;-61
2021/08/06 14:20:59;;;;;;;39.13;31.15;;;;;;;;;;5033952;28;20108;-61
2021/08/06 14:23:29;;;;;;;18.15;13.55;;;;;;;;;;5033482;28;20034;-54
2021/08/06 14:25:55;;;;;;;46.53;36.70;;;;;;;;;;5033676;28;20030;-54
2021/08/06 14:28:24;;;;;;;10.90;8.93;;;;;;;;;;5033848;28;20113;-58
2021/08/06 14:30:50;;;;;;;19.30;12.60;;;;;;;;;;5033477;28;20033;-61
2021/08/06 14:33:16;;;;;;;15.05;12.00;;;;;;;;;;5033614;28;20030;-60
2021/08/06 14:35:42;;;;;;;25.23;19.15;;;;;;;;;;5033599;28;20083;-62
2021/08/06 14:38:08;;;;;;;39.38;28.20;;;;;;;;;;5033500;28;20049;-58